sensor_id;sensor_type;location;lat;lon;timestamp;temperature;humidity
70820;DHT22;58439;51.046;13.692;2022-12-18T00:01:32;-6.80;96.40
70820;DHT22;58439;51.046;13.692;2022-12-18T00:04:03;-6.80;96.30
70820;DHT22;58439;51.046;13.692;2022-12-18T00:06:33;-6.80;96.10
70820;DHT22;58439;51.046;13.692;2022-12-18T00:09:02;-6.80;96.00
70820;DHT22;58439;51.046;13.692;2022-12-18T00:11:31;-6.80;96.20
70820;DHT22;58439;51.046;13.692;2022-12-18T00:13:59;-6.80;96.30
70820;DHT22;58439;51.046;13.692;2022-12-18T00:16:28;-6.80;96.20
70820;DHT22;58439;51.046;13.692;2022-12-18T00:18:59;-6.90;96.00
70820;DHT22;58439;51.046;13.692;2022-12-18T00:21:29;-6.90;96.00
70820;DHT22;58439;51.046;13.692;2022-12-18T00:23:59;-6.90;96.00
70820;DHT22;58439;51.046;13.692;2022-12-18T00:26:30;-6.80;96.10
70820;DHT22;58439;51.046;13.692;2022-12-18T00:29:04;-6.90;96.10
70820;DHT22;58439;51.046;13.692;2022-12-18T00:31:37;-6.80;96.00
70820;DHT22;58439;51.046;13.692;2022-12-18T00:34:05;-6.90;95.80
70820;DHT22;58439;51.046;13.692;2022-12-18T00:36:34;-7.00;95.60
70820;DHT22;58439;51.046;13.692;2022-12-18T00:39:03;-7.00;95.70
70820;DHT22;58439;51.046;13.692;2022-12-18T00:41:32;-7.00;95.80
70820;DHT22;58439;51.046;13.692;2022-12-18T00:44:18;-7.00;96.00
70820;DHT22;58439;51.046;13.692;2022-12-18T00:46:47;-7.10;96.10
70820;DHT22;58439;51.046;13.692;2022-12-18T00:49:17;-7.10;96.00
70820;DHT22;58439;51.046;13.692;2022-12-18T00:51:47;-7.10;96.00
70820;DHT22;58439;51.046;13.692;2022-12-18T00:54:15;-7.10;96.00
70820;DHT22;58439;51.046;13.692;2022-12-18T00:56:43;-7.20;96.00
70820;DHT22;58439;51.046;13.692;2022-12-18T00:59:16;-7.20;96.10
70820;DHT22;58439;51.046;13.692;2022-12-18T01:01:45;-7.30;96.10
70820;DHT22;58439;51.046;13.692;2022-12-18T01:04:13;-7.30;96.20
70820;DHT22;58439;51.046;13.692;2022-12-18T01:06:44;-7.30;96.40
70820;DHT22;58439;51.046;13.692;2022-12-18T01:09:11;-7.20;96.70
70820;DHT22;58439;51.046;13.692;2022-12-18T01:11:39;-7.20;96.70
70820;DHT22;58439;51.046;13.692;2022-12-18T01:14:06;-7.20;96.30
70820;DHT22;58439;51.046;13.692;2022-12-18T01:16:35;-7.20;96.00
70820;DHT22;58439;51.046;13.692;2022-12-18T01:19:04;-7.20;95.70
70820;DHT22;58439;51.046;13.692;2022-12-18T01:21:31;-7.20;95.40
70820;DHT22;58439;51.046;13.692;2022-12-18T01:24:03;-7.20;95.20
70820;DHT22;58439;51.046;13.692;2022-12-18T01:26:30;-7.20;95.20
70820;DHT22;58439;51.046;13.692;2022-12-18T01:28:58;-7.20;95.10
70820;DHT22;58439;51.046;13.692;2022-12-18T01:31:28;-7.30;95.10
70820;DHT22;58439;51.046;13.692;2022-12-18T01:33:57;-7.30;95.20
70820;DHT22;58439;51.046;13.692;2022-12-18T01:36:33;-7.30;95.30
70820;DHT22;58439;51.046;13.692;2022-12-18T01:39:04;-7.30;95.30
70820;DHT22;58439;51.046;13.692;2022-12-18T01:41:34;-7.40;95.20
70820;DHT22;58439;51.046;13.692;2022-12-18T01:50:35;-7.40;95.00
70820;DHT22;58439;51.046;13.692;2022-12-18T01:53:15;-7.40;94.90
70820;DHT22;58439;51.046;13.692;2022-12-18T01:55:52;-7.40;94.90
70820;DHT22;58439;51.046;13.692;2022-12-18T01:58:30;-7.50;94.90
70820;DHT22;58439;51.046;13.692;2022-12-18T02:01:04;-7.50;95.20
70820;DHT22;58439;51.046;13.692;2022-12-18T02:03:32;-7.40;95.30
70820;DHT22;58439;51.046;13.692;2022-12-18T02:09:07;-7.50;95.00
70820;DHT22;58439;51.046;13.692;2022-12-18T02:11:51;-7.50;95.00
70820;DHT22;58439;51.046;13.692;2022-12-18T02:14:44;-7.60;95.00
70820;DHT22;58439;51.046;13.692;2022-12-18T02:17:37;-7.60;95.20
70820;DHT22;58439;51.046;13.692;2022-12-18T02:20:14;-7.60;95.30
70820;DHT22;58439;51.046;13.692;2022-12-18T02:26:34;-7.60;94.90
70820;DHT22;58439;51.046;13.692;2022-12-18T02:29:12;-7.70;94.90
70820;DHT22;58439;51.046;13.692;2022-12-18T02:31:49;-7.70;95.00
70820;DHT22;58439;51.046;13.692;2022-12-18T02:34:26;-7.60;95.00
70820;DHT22;58439;51.046;13.692;2022-12-18T02:36:59;-7.60;94.90
70820;DHT22;58439;51.046;13.692;2022-12-18T02:39:30;-7.70;94.70
70820;DHT22;58439;51.046;13.692;2022-12-18T02:42:03;-7.70;94.70
70820;DHT22;58439;51.046;13.692;2022-12-18T02:44:41;-7.70;94.50
70820;DHT22;58439;51.046;13.692;2022-12-18T02:47:13;-7.70;94.40
70820;DHT22;58439;51.046;13.692;2022-12-18T02:52:35;-7.80;94.40
70820;DHT22;58439;51.046;13.692;2022-12-18T02:55:15;-7.70;94.50
70820;DHT22;58439;51.046;13.692;2022-12-18T02:57:55;-7.80;94.40
70820;DHT22;58439;51.046;13.692;2022-12-18T03:00:51;-7.80;94.30
70820;DHT22;58439;51.046;13.692;2022-12-18T03:03:38;-7.90;94.30
70820;DHT22;58439;51.046;13.692;2022-12-18T03:06:18;-7.90;94.80
70820;DHT22;58439;51.046;13.692;2022-12-18T03:08:56;-8.00;94.60
70820;DHT22;58439;51.046;13.692;2022-12-18T03:11:30;-8.00;94.60
70820;DHT22;58439;51.046;13.692;2022-12-18T03:14:21;-8.00;94.90
70820;DHT22;58439;51.046;13.692;2022-12-18T03:16:53;-8.00;95.20
70820;DHT22;58439;51.046;13.692;2022-12-18T03:19:27;-8.00;95.20
70820;DHT22;58439;51.046;13.692;2022-12-18T03:22:00;-7.90;95.10
70820;DHT22;58439;51.046;13.692;2022-12-18T03:24:40;-7.90;94.90
70820;DHT22;58439;51.046;13.692;2022-12-18T03:27:15;-7.90;94.80
70820;DHT22;58439;51.046;13.692;2022-12-18T03:29:49;-7.90;94.70
70820;DHT22;58439;51.046;13.692;2022-12-18T03:32:30;-7.90;94.60
70820;DHT22;58439;51.046;13.692;2022-12-18T03:35:04;-8.00;94.60
70820;DHT22;58439;51.046;13.692;2022-12-18T03:37:36;-8.00;94.60
70820;DHT22;58439;51.046;13.692;2022-12-18T03:40:05;-8.00;94.70
70820;DHT22;58439;51.046;13.692;2022-12-18T03:42:49;-8.00;94.80
70820;DHT22;58439;51.046;13.692;2022-12-18T03:45:36;-8.00;94.80
70820;DHT22;58439;51.046;13.692;2022-12-18T03:48:11;-8.00;94.70
70820;DHT22;58439;51.046;13.692;2022-12-18T03:50:56;-8.10;94.50
70820;DHT22;58439;51.046;13.692;2022-12-18T03:56:13;-8.20;94.70
70820;DHT22;58439;51.046;13.692;2022-12-18T03:58:44;-8.20;94.90
70820;DHT22;58439;51.046;13.692;2022-12-18T04:01:25;-8.10;95.10
70820;DHT22;58439;51.046;13.692;2022-12-18T04:04:00;-8.10;95.10
70820;DHT22;58439;51.046;13.692;2022-12-18T04:06:36;-8.10;95.30
70820;DHT22;58439;51.046;13.692;2022-12-18T04:09:04;-8.00;95.30
70820;DHT22;58439;51.046;13.692;2022-12-18T04:11:36;-8.00;95.10
70820;DHT22;58439;51.046;13.692;2022-12-18T04:14:05;-8.00;94.90
70820;DHT22;58439;51.046;13.692;2022-12-18T04:16:33;-8.10;94.80
70820;DHT22;58439;51.046;13.692;2022-12-18T04:19:03;-8.10;94.90
70820;DHT22;58439;51.046;13.692;2022-12-18T04:21:37;-8.10;94.70
70820;DHT22;58439;51.046;13.692;2022-12-18T04:24:05;-8.10;94.70
70820;DHT22;58439;51.046;13.692;2022-12-18T04:40:12;-8.20;94.90
70820;DHT22;58439;51.046;13.692;2022-12-18T04:42:43;-8.20;94.90
70820;DHT22;58439;51.046;13.692;2022-12-18T04:53:26;-8.20;94.70
70820;DHT22;58439;51.046;13.692;2022-12-18T04:56:08;-8.20;94.50
70820;DHT22;58439;51.046;13.692;2022-12-18T04:58:38;-8.20;94.40
70820;DHT22;58439;51.046;13.692;2022-12-18T05:01:07;-8.20;94.40
70820;DHT22;58439;51.046;13.692;2022-12-18T05:03:36;-8.20;94.40
70820;DHT22;58439;51.046;13.692;2022-12-18T05:06:05;-8.20;94.30
70820;DHT22;58439;51.046;13.692;2022-12-18T05:08:33;-8.20;94.30
70820;DHT22;58439;51.046;13.692;2022-12-18T05:11:05;-8.30;94.20
70820;DHT22;58439;51.046;13.692;2022-12-18T05:13:36;-8.30;94.50
70820;DHT22;58439;51.046;13.692;2022-12-18T05:16:05;-8.30;94.50
70820;DHT22;58439;51.046;13.692;2022-12-18T05:18:33;-8.30;94.10
70820;DHT22;58439;51.046;13.692;2022-12-18T05:21:01;-8.40;94.00
70820;DHT22;58439;51.046;13.692;2022-12-18T05:23:32;-8.40;94.20
70820;DHT22;58439;51.046;13.692;2022-12-18T05:26:01;-8.40;94.20
70820;DHT22;58439;51.046;13.692;2022-12-18T05:28:31;-8.40;94.20
70820;DHT22;58439;51.046;13.692;2022-12-18T05:31:03;-8.40;94.10
70820;DHT22;58439;51.046;13.692;2022-12-18T05:33:33;-8.40;94.10
70820;DHT22;58439;51.046;13.692;2022-12-18T05:36:03;-8.50;94.00
70820;DHT22;58439;51.046;13.692;2022-12-18T05:38:34;-8.40;94.10
70820;DHT22;58439;51.046;13.692;2022-12-18T05:41:04;-8.40;94.10
70820;DHT22;58439;51.046;13.692;2022-12-18T05:43:35;-8.40;94.00
70820;DHT22;58439;51.046;13.692;2022-12-18T05:46:08;-8.40;94.00
70820;DHT22;58439;51.046;13.692;2022-12-18T05:48:43;-8.50;94.00
70820;DHT22;58439;51.046;13.692;2022-12-18T05:51:13;-8.50;94.20
70820;DHT22;58439;51.046;13.692;2022-12-18T05:53:42;-8.50;94.20
70820;DHT22;58439;51.046;13.692;2022-12-18T05:56:13;-8.50;94.30
70820;DHT22;58439;51.046;13.692;2022-12-18T05:58:42;-8.60;94.40
70820;DHT22;58439;51.046;13.692;2022-12-18T06:01:14;-8.60;94.40
70820;DHT22;58439;51.046;13.692;2022-12-18T06:03:43;-8.60;94.40
70820;DHT22;58439;51.046;13.692;2022-12-18T06:06:23;-8.60;94.60
70820;DHT22;58439;51.046;13.692;2022-12-18T06:08:53;-8.50;94.80
70820;DHT22;58439;51.046;13.692;2022-12-18T06:11:23;-8.50;95.10
70820;DHT22;58439;51.046;13.692;2022-12-18T06:13:56;-8.50;94.60
70820;DHT22;58439;51.046;13.692;2022-12-18T06:16:27;-8.40;94.50
70820;DHT22;58439;51.046;13.692;2022-12-18T06:18:59;-8.50;94.50
70820;DHT22;58439;51.046;13.692;2022-12-18T06:21:28;-8.50;94.50
70820;DHT22;58439;51.046;13.692;2022-12-18T06:33:39;-8.50;94.60
70820;DHT22;58439;51.046;13.692;2022-12-18T06:36:12;-8.50;94.50
70820;DHT22;58439;51.046;13.692;2022-12-18T06:38:41;-8.50;94.40
70820;DHT22;58439;51.046;13.692;2022-12-18T06:41:15;-8.50;94.60
70820;DHT22;58439;51.046;13.692;2022-12-18T06:43:55;-8.50;94.30
70820;DHT22;58439;51.046;13.692;2022-12-18T06:46:47;-8.60;94.30
70820;DHT22;58439;51.046;13.692;2022-12-18T06:49:14;-8.60;94.40
70820;DHT22;58439;51.046;13.692;2022-12-18T06:51:55;-8.60;94.40
70820;DHT22;58439;51.046;13.692;2022-12-18T06:54:23;-8.70;94.50
70820;DHT22;58439;51.046;13.692;2022-12-18T06:56:50;-8.60;94.70
70820;DHT22;58439;51.046;13.692;2022-12-18T06:59:18;-8.60;94.90
70820;DHT22;58439;51.046;13.692;2022-12-18T07:01:45;-8.60;94.90
70820;DHT22;58439;51.046;13.692;2022-12-18T07:04:13;-8.60;94.90
70820;DHT22;58439;51.046;13.692;2022-12-18T07:06:40;-8.60;94.80
70820;DHT22;58439;51.046;13.692;2022-12-18T07:09:07;-8.60;94.70
70820;DHT22;58439;51.046;13.692;2022-12-18T07:11:34;-8.60;94.60
70820;DHT22;58439;51.046;13.692;2022-12-18T07:14:02;-8.60;94.60
70820;DHT22;58439;51.046;13.692;2022-12-18T07:16:29;-8.60;94.60
70820;DHT22;58439;51.046;13.692;2022-12-18T07:18:56;-8.60;94.50
70820;DHT22;58439;51.046;13.692;2022-12-18T07:21:24;-8.60;94.40
70820;DHT22;58439;51.046;13.692;2022-12-18T07:23:52;-8.60;94.40
70820;DHT22;58439;51.046;13.692;2022-12-18T07:26:20;-8.50;94.60
70820;DHT22;58439;51.046;13.692;2022-12-18T07:28:48;-8.50;94.60
70820;DHT22;58439;51.046;13.692;2022-12-18T07:31:20;-8.50;94.50
70820;DHT22;58439;51.046;13.692;2022-12-18T07:33:49;-8.50;94.50
70820;DHT22;58439;51.046;13.692;2022-12-18T07:36:17;-8.50;94.50
70820;DHT22;58439;51.046;13.692;2022-12-18T07:38:49;-8.40;94.60
70820;DHT22;58439;51.046;13.692;2022-12-18T07:41:19;-8.40;94.60
70820;DHT22;58439;51.046;13.692;2022-12-18T07:43:47;-8.40;94.50
70820;DHT22;58439;51.046;13.692;2022-12-18T07:46:15;-8.30;94.40
70820;DHT22;58439;51.046;13.692;2022-12-18T07:48:44;-8.30;94.40
70820;DHT22;58439;51.046;13.692;2022-12-18T07:51:17;-8.30;94.40
70820;DHT22;58439;51.046;13.692;2022-12-18T07:53:45;-8.20;94.40
70820;DHT22;58439;51.046;13.692;2022-12-18T07:56:18;-8.10;94.40
70820;DHT22;58439;51.046;13.692;2022-12-18T07:58:57;-8.00;95.40
70820;DHT22;58439;51.046;13.692;2022-12-18T08:01:25;-7.70;96.00
70820;DHT22;58439;51.046;13.692;2022-12-18T08:03:53;-7.60;95.90
70820;DHT22;58439;51.046;13.692;2022-12-18T08:06:20;-7.60;95.10
70820;DHT22;58439;51.046;13.692;2022-12-18T08:08:51;-7.60;94.70
70820;DHT22;58439;51.046;13.692;2022-12-18T08:11:19;-7.60;94.50
70820;DHT22;58439;51.046;13.692;2022-12-18T08:13:47;-7.50;94.40
70820;DHT22;58439;51.046;13.692;2022-12-18T08:16:15;-7.50;94.20
70820;DHT22;58439;51.046;13.692;2022-12-18T08:18:43;-7.50;94.00
70820;DHT22;58439;51.046;13.692;2022-12-18T08:21:11;-7.40;94.00
70820;DHT22;58439;51.046;13.692;2022-12-18T08:23:42;-7.30;93.90
70820;DHT22;58439;51.046;13.692;2022-12-18T08:26:11;-7.20;93.70
70820;DHT22;58439;51.046;13.692;2022-12-18T08:28:39;-7.20;93.70
70820;DHT22;58439;51.046;13.692;2022-12-18T08:31:07;-7.00;93.80
70820;DHT22;58439;51.046;13.692;2022-12-18T08:33:52;-7.00;93.70
70820;DHT22;58439;51.046;13.692;2022-12-18T08:36:24;-6.90;93.60
70820;DHT22;58439;51.046;13.692;2022-12-18T08:38:53;-6.80;93.60
70820;DHT22;58439;51.046;13.692;2022-12-18T08:41:20;-6.70;93.70
70820;DHT22;58439;51.046;13.692;2022-12-18T08:43:48;-6.60;93.60
70820;DHT22;58439;51.046;13.692;2022-12-18T08:46:37;-6.50;93.50
70820;DHT22;58439;51.046;13.692;2022-12-18T08:49:08;-6.40;93.50
70820;DHT22;58439;51.046;13.692;2022-12-18T08:51:36;-6.30;93.40
70820;DHT22;58439;51.046;13.692;2022-12-18T08:54:04;-6.20;93.50
70820;DHT22;58439;51.046;13.692;2022-12-18T08:56:32;-6.10;93.40
70820;DHT22;58439;51.046;13.692;2022-12-18T08:59:03;-6.00;93.40
70820;DHT22;58439;51.046;13.692;2022-12-18T09:01:31;-5.90;93.30
70820;DHT22;58439;51.046;13.692;2022-12-18T09:04:01;-5.80;93.40
70820;DHT22;58439;51.046;13.692;2022-12-18T09:06:29;-5.80;93.20
70820;DHT22;58439;51.046;13.692;2022-12-18T09:08:57;-5.70;93.10
70820;DHT22;58439;51.046;13.692;2022-12-18T09:11:26;-5.60;93.00
70820;DHT22;58439;51.046;13.692;2022-12-18T09:13:56;-5.50;93.20
70820;DHT22;58439;51.046;13.692;2022-12-18T09:16:25;-5.40;93.10
70820;DHT22;58439;51.046;13.692;2022-12-18T09:18:59;-5.20;93.20
70820;DHT22;58439;51.046;13.692;2022-12-18T09:21:32;-5.10;92.90
70820;DHT22;58439;51.046;13.692;2022-12-18T09:27:25;-5.00;92.70
70820;DHT22;58439;51.046;13.692;2022-12-18T09:29:59;-4.90;92.60
70820;DHT22;58439;51.046;13.692;2022-12-18T09:32:26;-4.80;92.60
70820;DHT22;58439;51.046;13.692;2022-12-18T09:34:53;-4.70;92.70
70820;DHT22;58439;51.046;13.692;2022-12-18T09:37:20;-4.60;92.70
70820;DHT22;58439;51.046;13.692;2022-12-18T09:39:48;-4.50;92.60
70820;DHT22;58439;51.046;13.692;2022-12-18T09:42:22;-4.40;92.60
70820;DHT22;58439;51.046;13.692;2022-12-18T09:44:52;-4.30;92.50
70820;DHT22;58439;51.046;13.692;2022-12-18T09:49:55;-4.10;92.30
70820;DHT22;58439;51.046;13.692;2022-12-18T09:52:35;-4.10;91.90
70820;DHT22;58439;51.046;13.692;2022-12-18T10:00:36;-3.80;91.70
70820;DHT22;58439;51.046;13.692;2022-12-18T10:03:10;-3.70;91.60
70820;DHT22;58439;51.046;13.692;2022-12-18T10:05:59;-3.60;91.50
70820;DHT22;58439;51.046;13.692;2022-12-18T10:09:06;-3.50;91.50
70820;DHT22;58439;51.046;13.692;2022-12-18T10:13:11;-3.20;91.90
70820;DHT22;58439;51.046;13.692;2022-12-18T10:16:12;-2.00;91.70
70820;DHT22;58439;51.046;13.692;2022-12-18T10:25:13;0.80;78.90
70820;DHT22;58439;51.046;13.692;2022-12-18T10:27:43;1.40;76.50
70820;DHT22;58439;51.046;13.692;2022-12-18T10:30:16;1.70;74.10
70820;DHT22;58439;51.046;13.692;2022-12-18T10:32:45;2.00;72.60
70820;DHT22;58439;51.046;13.692;2022-12-18T10:35:24;2.30;71.90
70820;DHT22;58439;51.046;13.692;2022-12-18T10:41:03;2.50;70.90
70820;DHT22;58439;51.046;13.692;2022-12-18T10:43:33;2.60;69.40
70820;DHT22;58439;51.046;13.692;2022-12-18T10:48:54;2.90;68.40
70820;DHT22;58439;51.046;13.692;2022-12-18T10:51:36;3.10;66.40
70820;DHT22;58439;51.046;13.692;2022-12-18T10:54:20;3.30;66.30
70820;DHT22;58439;51.046;13.692;2022-12-18T10:57:29;3.50;63.90
70820;DHT22;58439;51.046;13.692;2022-12-18T11:02:51;3.60;63.40
70820;DHT22;58439;51.046;13.692;2022-12-18T11:05:29;3.70;62.00
70820;DHT22;58439;51.046;13.692;2022-12-18T11:08:01;3.80;61.50
70820;DHT22;58439;51.046;13.692;2022-12-18T11:10:35;4.00;61.00
70820;DHT22;58439;51.046;13.692;2022-12-18T11:13:25;3.90;58.60
70820;DHT22;58439;51.046;13.692;2022-12-18T11:15:57;4.00;57.80
70820;DHT22;58439;51.046;13.692;2022-12-18T11:18:35;4.30;56.80
70820;DHT22;58439;51.046;13.692;2022-12-18T11:21:11;4.40;54.60
70820;DHT22;58439;51.046;13.692;2022-12-18T11:23:50;4.50;53.70
70820;DHT22;58439;51.046;13.692;2022-12-18T11:26:19;4.50;53.10
70820;DHT22;58439;51.046;13.692;2022-12-18T11:28:53;4.40;52.90
70820;DHT22;58439;51.046;13.692;2022-12-18T11:31:36;4.60;52.90
70820;DHT22;58439;51.046;13.692;2022-12-18T11:34:28;4.90;51.90
70820;DHT22;58439;51.046;13.692;2022-12-18T11:37:00;4.60;50.80
70820;DHT22;58439;51.046;13.692;2022-12-18T11:39:49;4.50;50.70
70820;DHT22;58439;51.046;13.692;2022-12-18T11:42:50;4.40;51.10
70820;DHT22;58439;51.046;13.692;2022-12-18T11:45:33;4.80;50.30
70820;DHT22;58439;51.046;13.692;2022-12-18T11:48:34;4.90;49.00
70820;DHT22;58439;51.046;13.692;2022-12-18T11:51:15;4.60;49.20
70820;DHT22;58439;51.046;13.692;2022-12-18T11:53:53;4.80;48.50
70820;DHT22;58439;51.046;13.692;2022-12-18T11:56:35;4.80;48.80
70820;DHT22;58439;51.046;13.692;2022-12-18T11:59:24;4.90;48.30
70820;DHT22;58439;51.046;13.692;2022-12-18T12:02:22;5.10;47.50
70820;DHT22;58439;51.046;13.692;2022-12-18T12:05:25;5.10;47.70
70820;DHT22;58439;51.046;13.692;2022-12-18T12:11:02;4.90;46.70
70820;DHT22;58439;51.046;13.692;2022-12-18T12:14:06;5.00;47.20
70820;DHT22;58439;51.046;13.692;2022-12-18T12:16:54;5.20;46.10
70820;DHT22;58439;51.046;13.692;2022-12-18T12:22:49;5.20;45.00
70820;DHT22;58439;51.046;13.692;2022-12-18T12:25:49;4.70;44.60
70820;DHT22;58439;51.046;13.692;2022-12-18T12:37:17;4.80;45.50
70820;DHT22;58439;51.046;13.692;2022-12-18T12:39:56;4.90;45.20
70820;DHT22;58439;51.046;13.692;2022-12-18T12:42:31;4.90;44.90
70820;DHT22;58439;51.046;13.692;2022-12-18T12:45:33;4.70;44.50
70820;DHT22;58439;51.046;13.692;2022-12-18T12:48:10;4.60;44.70
70820;DHT22;58439;51.046;13.692;2022-12-18T12:50:46;4.50;44.70
70820;DHT22;58439;51.046;13.692;2022-12-18T12:53:23;4.10;45.30
70820;DHT22;58439;51.046;13.692;2022-12-18T12:55:58;4.00;45.90
70820;DHT22;58439;51.046;13.692;2022-12-18T12:58:36;3.90;46.20
70820;DHT22;58439;51.046;13.692;2022-12-18T13:04:47;3.30;46.60
70820;DHT22;58439;51.046;13.692;2022-12-18T13:08:03;2.60;47.60
70820;DHT22;58439;51.046;13.692;2022-12-18T13:10:40;2.10;49.40
70820;DHT22;58439;51.046;13.692;2022-12-18T13:13:50;1.80;50.40
70820;DHT22;58439;51.046;13.692;2022-12-18T13:16:22;1.60;52.60
70820;DHT22;58439;51.046;13.692;2022-12-18T13:19:24;1.50;53.60
70820;DHT22;58439;51.046;13.692;2022-12-18T13:22:27;1.30;54.40
70820;DHT22;58439;51.046;13.692;2022-12-18T13:24:58;0.90;55.90
70820;DHT22;58439;51.046;13.692;2022-12-18T13:27:59;0.60;57.80
70820;DHT22;58439;51.046;13.692;2022-12-18T13:41:25;0.40;61.70
70820;DHT22;58439;51.046;13.692;2022-12-18T13:44:13;0.30;62.70
70820;DHT22;58439;51.046;13.692;2022-12-18T13:46:50;0.40;63.30
70820;DHT22;58439;51.046;13.692;2022-12-18T13:49:27;0.50;62.90
70820;DHT22;58439;51.046;13.692;2022-12-18T13:52:17;0.60;63.00
70820;DHT22;58439;51.046;13.692;2022-12-18T13:54:55;0.70;62.90
70820;DHT22;58439;51.046;13.692;2022-12-18T13:57:37;0.80;62.70
70820;DHT22;58439;51.046;13.692;2022-12-18T14:00:26;0.60;62.00
70820;DHT22;58439;51.046;13.692;2022-12-18T14:03:00;0.20;63.20
70820;DHT22;58439;51.046;13.692;2022-12-18T14:05:34;-0.20;64.30
70820;DHT22;58439;51.046;13.692;2022-12-18T14:08:12;-0.60;66.00
70820;DHT22;58439;51.046;13.692;2022-12-18T14:10:46;-1.00;67.90
70820;DHT22;58439;51.046;13.692;2022-12-18T14:13:36;-1.30;69.80
70820;DHT22;58439;51.046;13.692;2022-12-18T14:16:13;-1.50;71.40
70820;DHT22;58439;51.046;13.692;2022-12-18T14:18:56;-1.60;72.00
70820;DHT22;58439;51.046;13.692;2022-12-18T14:21:34;-1.70;73.40
70820;DHT22;58439;51.046;13.692;2022-12-18T14:24:20;-1.80;74.10
70820;DHT22;58439;51.046;13.692;2022-12-18T14:26:51;-1.90;75.10
70820;DHT22;58439;51.046;13.692;2022-12-18T14:29:28;-2.00;76.10
70820;DHT22;58439;51.046;13.692;2022-12-18T14:32:12;-2.20;77.30
70820;DHT22;58439;51.046;13.692;2022-12-18T14:34:52;-2.30;77.90
70820;DHT22;58439;51.046;13.692;2022-12-18T14:37:24;-2.40;78.50
70820;DHT22;58439;51.046;13.692;2022-12-18T14:40:01;-2.50;78.80
70820;DHT22;58439;51.046;13.692;2022-12-18T14:42:36;-2.60;79.50
70820;DHT22;58439;51.046;13.692;2022-12-18T14:45:40;-2.70;80.00
70820;DHT22;58439;51.046;13.692;2022-12-18T14:48:34;-2.80;80.60
70820;DHT22;58439;51.046;13.692;2022-12-18T14:51:06;-2.80;81.20
70820;DHT22;58439;51.046;13.692;2022-12-18T14:54:01;-2.90;81.90
70820;DHT22;58439;51.046;13.692;2022-12-18T14:56:36;-3.00;82.00
70820;DHT22;58439;51.046;13.692;2022-12-18T14:59:21;-3.10;82.00
70820;DHT22;58439;51.046;13.692;2022-12-18T15:04:32;-3.30;83.50
70820;DHT22;58439;51.046;13.692;2022-12-18T15:07:13;-3.30;83.70
70820;DHT22;58439;51.046;13.692;2022-12-18T15:15:53;-3.50;86.20
70820;DHT22;58439;51.046;13.692;2022-12-18T15:18:55;-3.50;86.30
70820;DHT22;58439;51.046;13.692;2022-12-18T15:22:29;-3.60;86.20
70820;DHT22;58439;51.046;13.692;2022-12-18T15:25:16;-3.60;86.90
70820;DHT22;58439;51.046;13.692;2022-12-18T15:28:01;-3.60;86.80
70820;DHT22;58439;51.046;13.692;2022-12-18T15:30:28;-3.70;87.50
70820;DHT22;58439;51.046;13.692;2022-12-18T15:37:22;-3.70;87.90
70820;DHT22;58439;51.046;13.692;2022-12-18T15:41:02;-3.60;88.20
70820;DHT22;58439;51.046;13.692;2022-12-18T15:48:27;-3.70;88.80
70820;DHT22;58439;51.046;13.692;2022-12-18T15:50:56;-3.80;89.30
70820;DHT22;58439;51.046;13.692;2022-12-18T15:53:30;-3.80;89.30
70820;DHT22;58439;51.046;13.692;2022-12-18T15:55:59;-3.80;89.40
70820;DHT22;58439;51.046;13.692;2022-12-18T15:58:48;-3.80;89.70
70820;DHT22;58439;51.046;13.692;2022-12-18T16:02:09;-3.80;89.90
70820;DHT22;58439;51.046;13.692;2022-12-18T16:04:52;-3.80;90.00
70820;DHT22;58439;51.046;13.692;2022-12-18T16:07:21;-3.80;90.10
70820;DHT22;58439;51.046;13.692;2022-12-18T16:09:52;-3.80;90.00
70820;DHT22;58439;51.046;13.692;2022-12-18T16:12:22;-3.80;90.20
70820;DHT22;58439;51.046;13.692;2022-12-18T16:14:51;-3.90;90.30
70820;DHT22;58439;51.046;13.692;2022-12-18T16:17:19;-3.90;90.40
70820;DHT22;58439;51.046;13.692;2022-12-18T16:19:50;-3.90;90.50
70820;DHT22;58439;51.046;13.692;2022-12-18T16:22:20;-3.90;90.60
70820;DHT22;58439;51.046;13.692;2022-12-18T16:24:52;-3.90;90.60
70820;DHT22;58439;51.046;13.692;2022-12-18T16:27:21;-3.90;90.70
70820;DHT22;58439;51.046;13.692;2022-12-18T16:29:49;-3.90;90.70
70820;DHT22;58439;51.046;13.692;2022-12-18T16:32:19;-3.90;90.80
70820;DHT22;58439;51.046;13.692;2022-12-18T16:34:50;-3.90;90.70
70820;DHT22;58439;51.046;13.692;2022-12-18T16:37:17;-3.90;90.70
70820;DHT22;58439;51.046;13.692;2022-12-18T16:39:48;-3.90;90.90
70820;DHT22;58439;51.046;13.692;2022-12-18T16:42:19;-3.90;91.00
70820;DHT22;58439;51.046;13.692;2022-12-18T16:44:48;-3.90;91.00
70820;DHT22;58439;51.046;13.692;2022-12-18T16:47:18;-3.90;91.30
70820;DHT22;58439;51.046;13.692;2022-12-18T16:49:46;-3.90;91.10
70820;DHT22;58439;51.046;13.692;2022-12-18T16:52:19;-3.80;91.10
70820;DHT22;58439;51.046;13.692;2022-12-18T16:54:47;-3.80;91.00
70820;DHT22;58439;51.046;13.692;2022-12-18T16:57:17;-3.80;90.90
70820;DHT22;58439;51.046;13.692;2022-12-18T16:59:51;-3.90;90.80
70820;DHT22;58439;51.046;13.692;2022-12-18T17:02:24;-3.90;91.00
70820;DHT22;58439;51.046;13.692;2022-12-18T17:04:55;-3.90;91.20
70820;DHT22;58439;51.046;13.692;2022-12-18T17:07:29;-3.90;91.20
70820;DHT22;58439;51.046;13.692;2022-12-18T17:09:57;-3.90;91.30
70820;DHT22;58439;51.046;13.692;2022-12-18T17:12:24;-3.90;91.20
70820;DHT22;58439;51.046;13.692;2022-12-18T17:14:52;-3.90;91.20
70820;DHT22;58439;51.046;13.692;2022-12-18T17:17:20;-3.90;91.80
70820;DHT22;58439;51.046;13.692;2022-12-18T17:19:50;-3.90;91.40
70820;DHT22;58439;51.046;13.692;2022-12-18T17:22:19;-4.00;91.20
70820;DHT22;58439;51.046;13.692;2022-12-18T17:24:48;-4.00;91.40
70820;DHT22;58439;51.046;13.692;2022-12-18T17:27:16;-4.00;91.70
70820;DHT22;58439;51.046;13.692;2022-12-18T17:29:44;-4.00;91.70
70820;DHT22;58439;51.046;13.692;2022-12-18T17:32:15;-4.00;91.70
70820;DHT22;58439;51.046;13.692;2022-12-18T17:34:44;-4.00;91.70
70820;DHT22;58439;51.046;13.692;2022-12-18T17:37:19;-4.00;92.10
70820;DHT22;58439;51.046;13.692;2022-12-18T17:39:46;-4.00;91.90
70820;DHT22;58439;51.046;13.692;2022-12-18T17:42:13;-4.00;91.90
70820;DHT22;58439;51.046;13.692;2022-12-18T17:44:42;-4.00;92.00
70820;DHT22;58439;51.046;13.692;2022-12-18T17:47:12;-4.00;92.00
70820;DHT22;58439;51.046;13.692;2022-12-18T17:49:39;-4.00;91.90
70820;DHT22;58439;51.046;13.692;2022-12-18T17:52:07;-4.10;92.10
70820;DHT22;58439;51.046;13.692;2022-12-18T17:54:34;-4.00;92.50
70820;DHT22;58439;51.046;13.692;2022-12-18T17:57:05;-4.00;92.40
70820;DHT22;58439;51.046;13.692;2022-12-18T17:59:32;-3.90;92.30
70820;DHT22;58439;51.046;13.692;2022-12-18T18:01:59;-3.90;92.30
70820;DHT22;58439;51.046;13.692;2022-12-18T18:04:26;-3.80;92.20
70820;DHT22;58439;51.046;13.692;2022-12-18T18:06:54;-3.80;92.00
70820;DHT22;58439;51.046;13.692;2022-12-18T18:09:21;-3.80;92.20
70820;DHT22;58439;51.046;13.692;2022-12-18T18:11:48;-3.80;92.20